首页
METAR-TAF:

METAR-TAF

机场 :

约翰·卡尔·芒罗哈密尔顿国际机场

哈密尔顿, 安大略省, 加拿大

纬度: 43-10N, 经度: 079-56W, 海拔: 237米

当前天气观测

该预报发布于45分钟前的22:00 UTC
风速12节,风向西,有时为17节阵风
温度 27°C
湿度 45%
气压 1016 hPa
能見度: 24.1公里
少量云层高于6800英尺

METAR: CYHM 262200Z 28012G17KT 15SM FEW068 27/14 A3001 RMK AC1 SLP161 DENSITY ALT 2300FT

时间: 18:45 (22:45 UTC)

预报

该预报发布于5小时和7分钟前的17:38 UTC
预报有效从26日的 18点(UTC)到 27日的 18点(UTC)
风速12节,风向西,有时为22节阵风
能見度: 10公里
散云层高于5000英尺
短暂存在
从 26日的 18点(UTC)到 26日的 21点(UTC)
多云层高于5000英尺
从 26日的 2100点(UTC)
风速12节,风向西转西北,有时为22节阵风
能見度: 10公里
少量云层高于6000英尺
成为
从 27日的 00点(UTC)到 27日的 02点(UTC)
风速7节,风向西转西南
天空无云
从 27日的 0500点(UTC)
风速5节,风向西南
能見度: 10公里
少量云层高于10000英尺
从 27日的 1600点(UTC)
风速8节,风向西南
能見度: 10公里
散云层高于6000英尺

TAF: CYHM 261738Z 2618/2718 27012G22KT P6SM SCT050 TEMPO 2618/2621 BKN050 FM262100 29012G22KT P6SM FEW060 BECMG 2700/2702 25007KT SKC FM270500 22005KT P6SM FEW100 FM271600 23008KT P6SM SCT060 RMK NXT FCST BY 270000Z

超过4000个机场的气象观测和天气预报(METAR&TAF报告)。

可查询的气象台以黄色和红色小点在地图上表示。

将鼠标移到小点上方,可查看气象台名称。

然后点击查看天气观测和预报。

如需切换地图:点击带黑十字的绿色按钮放大地图;点击带横线的绿色按钮缩小地图;或者点击绿色箭头查看邻近地区的地图。


METAR-TAF: